createdAt,value
2019-04-05T00:02:21.044Z,22.03
2019-04-05T00:04:50.867Z,20.12
2019-04-05T00:07:20.632Z,19.07
2019-04-05T00:09:50.488Z,18.50
2019-04-05T00:12:20.168Z,20.27
2019-04-05T00:14:49.957Z,20.33
2019-04-05T00:17:19.679Z,20.37
2019-04-05T00:19:49.429Z,17.13
2019-04-05T00:22:19.231Z,19.77
2019-04-05T00:24:49.010Z,18.80
2019-04-05T00:27:19.295Z,22.70
2019-04-05T00:29:49.933Z,18.13
2019-04-05T00:32:19.701Z,17.70
2019-04-05T00:34:49.383Z,17.00
2019-04-05T00:37:19.059Z,17.37
2019-04-05T00:39:48.834Z,18.90
2019-04-05T00:42:18.515Z,20.00
2019-04-05T00:44:48.159Z,18.40
2019-04-05T00:47:17.819Z,17.80
2019-04-05T00:49:47.568Z,19.83
2019-04-05T00:52:17.208Z,17.73
2019-04-05T00:54:46.903Z,17.93
2019-04-05T00:57:16.686Z,14.93
2019-04-05T00:59:46.680Z,13.90
2019-04-05T01:02:16.561Z,14.83
2019-04-05T01:04:46.311Z,15.20
2019-04-05T01:07:16.165Z,14.63
2019-04-05T01:09:46.331Z,13.53
2019-04-05T01:12:17.108Z,13.97
2019-04-05T01:14:47.151Z,13.00
2019-04-05T01:17:24.829Z,13.83
2019-04-05T01:19:50.307Z,13.00
2019-04-05T01:22:22.981Z,15.83
2019-04-05T01:24:52.980Z,15.20
2019-04-05T01:27:24.823Z,14.25
2019-04-05T01:29:54.814Z,15.57
2019-04-05T01:32:26.162Z,13.90
2019-04-05T01:34:55.949Z,13.03
2019-04-05T01:37:26.329Z,13.30
2019-04-05T01:39:56.082Z,13.28
2019-04-05T01:42:35.900Z,13.53
2019-04-05T01:45:06.667Z,14.67
2019-04-05T01:47:37.736Z,13.40
2019-04-05T01:50:08.741Z,13.68
2019-04-05T01:52:38.962Z,14.43
2019-04-05T01:55:09.397Z,15.03
2019-04-05T01:57:39.199Z,17.23
2019-04-05T02:00:11.504Z,17.80
2019-04-05T02:02:41.287Z,17.40
2019-04-05T02:05:12.226Z,16.27
2019-04-05T02:07:42.142Z,16.07
2019-04-05T02:10:15.495Z,18.20
2019-04-05T02:12:46.349Z,15.13
2019-04-05T02:15:26.899Z,15.10
2019-04-05T02:17:58.027Z,16.83
2019-04-05T02:20:27.874Z,16.23
2019-04-05T02:22:57.739Z,15.70
2019-04-05T02:25:27.620Z,17.42
2019-04-05T02:27:59.412Z,15.67
2019-04-05T02:30:29.230Z,15.53
2019-04-05T02:32:58.952Z,15.57
2019-04-05T02:35:29.300Z,17.30
2019-04-05T02:37:59.099Z,17.57
2019-04-05T02:40:29.193Z,18.57
2019-04-05T02:42:59.316Z,17.20
2019-04-05T02:45:31.434Z,18.33
2019-04-05T02:48:04.216Z,18.90
2019-04-05T02:50:35.489Z,15.53
2019-04-05T02:53:07.171Z,15.83
2019-04-05T02:55:37.862Z,15.50
2019-04-05T02:58:08.284Z,16.97
2019-04-05T03:00:38.161Z,16.37
2019-04-05T03:03:07.886Z,15.30
2019-04-05T03:05:37.595Z,15.55
2019-04-05T03:08:07.427Z,17.50
2019-04-05T03:11:12.768Z,18.10
2019-04-05T03:14:03.231Z,14.87
2019-04-05T03:16:41.737Z,16.17
2019-04-05T03:19:14.933Z,15.90
2019-04-05T03:21:49.011Z,17.80
2019-04-05T03:24:21.660Z,16.37
2019-04-05T03:26:56.582Z,17.80
2019-04-05T03:29:27.639Z,19.63
2019-04-05T03:32:09.189Z,16.80
2019-04-05T03:34:40.396Z,17.55
2019-04-05T03:37:10.673Z,20.30
2019-04-05T03:39:40.823Z,20.83
2019-04-05T03:42:10.843Z,19.33
2019-04-05T03:44:41.218Z,16.70
2019-04-05T03:47:11.161Z,17.00
2019-04-05T03:49:41.119Z,21.63
2019-04-05T03:52:10.941Z,21.30
2019-04-05T03:54:40.814Z,18.77
2019-04-05T03:57:10.745Z,18.82
2019-04-05T03:59:40.949Z,20.33
2019-04-05T04:02:10.772Z,20.07
2019-04-05T04:04:40.610Z,20.20
2019-04-05T04:07:10.307Z,22.13
2019-04-05T04:09:40.084Z,21.27
2019-04-05T04:12:10.974Z,18.87
2019-04-05T04:14:41.033Z,20.93
2019-04-05T04:17:13.372Z,23.53
2019-04-05T04:19:42.803Z,19.90
2019-04-05T04:22:30.345Z,20.77
2019-04-05T04:25:01.503Z,19.32
2019-04-05T04:27:31.801Z,23.43
2019-04-05T04:30:01.819Z,20.83
2019-04-05T04:32:31.775Z,22.90
2019-04-05T04:35:01.554Z,23.90
2019-04-05T04:37:31.331Z,20.48
2019-04-05T04:40:01.059Z,22.37
2019-04-05T04:42:31.963Z,20.65
2019-04-05T04:45:11.803Z,22.77
2019-04-05T04:47:33.209Z,20.67
2019-04-05T04:50:03.359Z,22.50
2019-04-05T04:52:33.322Z,22.60
2019-04-05T04:55:03.283Z,23.70
2019-04-05T04:57:33.245Z,23.40
2019-04-05T05:00:03.001Z,21.13
2019-04-05T05:02:32.783Z,25.03
2019-04-05T05:05:02.910Z,24.87
2019-04-05T05:07:32.637Z,23.25
2019-04-05T05:10:03.364Z,23.57
2019-04-05T05:12:34.466Z,22.30
2019-04-05T05:15:04.845Z,26.73
2019-04-05T05:17:38.794Z,25.23
2019-04-05T05:20:07.011Z,24.47
2019-04-05T05:22:37.529Z,23.67
2019-04-05T05:25:07.665Z,25.68
2019-04-05T05:27:37.659Z,24.00
2019-04-05T05:30:10.114Z,25.40
2019-04-05T05:32:40.282Z,22.67
2019-04-05T05:35:10.096Z,27.37
2019-04-05T05:37:39.832Z,24.00
2019-04-05T05:40:10.081Z,24.60
2019-04-05T05:42:39.849Z,22.80
2019-04-05T05:45:10.508Z,24.27
2019-04-05T05:47:51.183Z,25.97
2019-04-05T05:50:11.880Z,23.37
2019-04-05T05:52:41.616Z,27.23
2019-04-05T05:55:11.462Z,28.12
2019-04-05T05:57:41.253Z,24.10
2019-04-05T06:00:13.057Z,26.12
2019-04-05T06:02:43.778Z,27.60
2019-04-05T06:05:13.794Z,24.43
2019-04-05T06:07:44.601Z,26.33
2019-04-05T06:10:14.444Z,26.73
2019-04-05T06:12:44.274Z,27.62
2019-04-05T06:15:14.078Z,25.47
2019-04-05T06:17:43.842Z,27.05
2019-04-05T06:20:14.333Z,28.50
2019-04-05T06:22:43.966Z,26.93
2019-04-05T06:25:14.745Z,28.67
2019-04-05T06:27:44.422Z,27.53
2019-04-05T06:30:14.257Z,30.67
2019-04-05T06:32:44.021Z,30.17
2019-04-05T06:35:15.396Z,30.77
2019-04-05T06:37:45.148Z,29.50
2019-04-05T06:40:16.231Z,30.63
2019-04-05T06:42:45.998Z,29.02
2019-04-05T06:45:15.682Z,28.57
2019-04-05T06:47:45.347Z,27.87
2019-04-05T06:50:15.098Z,29.10
2019-04-05T06:52:45.230Z,27.17
2019-04-05T06:55:15.020Z,27.33
2019-04-05T06:57:44.884Z,29.63
2019-04-05T07:00:14.660Z,27.20
2019-04-05T07:02:44.465Z,27.80
2019-04-05T07:05:14.380Z,26.97
2019-04-05T07:07:45.157Z,28.07
2019-04-05T07:10:14.930Z,27.23
2019-04-05T07:12:46.525Z,26.80
2019-04-05T07:15:16.315Z,27.47
2019-04-05T07:17:46.108Z,23.35
2019-04-05T07:20:15.852Z,25.50
2019-04-05T07:22:45.961Z,24.57
2019-04-05T07:25:15.748Z,23.80
2019-04-05T07:27:45.547Z,23.30
2019-04-05T07:30:16.223Z,23.47
2019-04-05T07:32:46.024Z,23.47
2019-04-05T07:35:15.839Z,23.07
2019-04-05T07:37:45.616Z,23.10
2019-04-05T07:40:15.919Z,25.55
2019-04-05T07:42:47.013Z,22.80
2019-04-05T07:45:16.843Z,19.33
2019-04-05T07:47:46.460Z,23.98
2019-04-05T07:50:16.470Z,22.40
2019-04-05T07:52:46.698Z,21.53
2019-04-05T07:55:16.499Z,21.97
2019-04-05T07:57:46.217Z,21.20
2019-04-05T08:00:51.057Z,23.30
2019-04-05T08:03:21.255Z,20.60
2019-04-05T08:05:51.678Z,19.07
2019-04-05T08:08:28.428Z,19.87
2019-04-05T08:10:58.715Z,19.92
2019-04-05T08:13:29.007Z,19.97
2019-04-05T08:16:01.393Z,18.70
2019-04-05T08:18:31.130Z,20.80
2019-04-05T08:21:00.899Z,24.53
2019-04-05T08:23:31.018Z,21.87
2019-04-05T08:26:00.739Z,21.17
2019-04-05T08:28:31.438Z,19.63
2019-04-05T08:31:01.254Z,19.93
2019-04-05T08:33:31.085Z,19.77
2019-04-05T08:36:00.959Z,20.93
2019-04-05T08:38:30.630Z,19.23
2019-04-05T08:41:01.378Z,19.20
2019-04-05T08:43:31.192Z,19.85
2019-04-05T08:46:00.892Z,21.40
2019-04-05T08:48:31.147Z,19.67
2019-04-05T08:51:00.948Z,19.20
2019-04-05T08:53:30.656Z,19.60
2019-04-05T08:56:00.442Z,18.77
2019-04-05T08:58:33.670Z,18.03
2019-04-05T09:01:02.420Z,19.50
2019-04-05T09:03:32.205Z,20.60
2019-04-05T09:06:02.069Z,24.57
2019-04-05T09:08:33.043Z,20.63
2019-04-05T09:11:03.174Z,22.03
2019-04-05T09:13:33.057Z,21.48
2019-04-05T09:16:03.009Z,18.80
2019-04-05T09:18:32.748Z,19.67
2019-04-05T09:21:02.570Z,19.97
2019-04-05T09:23:32.383Z,20.33
2019-04-05T09:26:02.187Z,20.37
2019-04-05T09:28:32.071Z,18.73
2019-04-05T09:31:02.027Z,20.85
2019-04-05T09:33:31.841Z,16.47
2019-04-05T09:36:02.289Z,20.07
2019-04-05T09:38:32.158Z,18.97
2019-04-05T09:41:04.911Z,18.57
2019-04-05T09:43:37.766Z,20.77
2019-04-05T09:46:08.591Z,21.70
2019-04-05T09:48:39.315Z,19.92
2019-04-05T09:51:09.106Z,20.10
2019-04-05T09:53:39.504Z,18.97
2019-04-05T09:56:09.207Z,18.63
2019-04-05T09:58:39.399Z,20.27
2019-04-05T10:01:09.202Z,19.23
2019-04-05T10:03:39.109Z,20.60
2019-04-05T10:06:08.990Z,17.90
2019-04-05T10:08:39.697Z,19.67
2019-04-05T10:11:14.211Z,18.37
2019-04-05T10:13:44.075Z,21.60
2019-04-05T10:16:13.945Z,21.87
2019-04-05T10:18:45.707Z,22.77
2019-04-05T10:21:15.476Z,21.05
2019-04-05T10:23:45.222Z,22.37
2019-04-05T10:26:15.050Z,18.73
2019-04-05T10:28:46.390Z,20.53
2019-04-05T10:31:16.312Z,22.13
2019-04-05T10:33:46.044Z,22.43
2019-04-05T10:36:16.019Z,19.93
2019-04-05T10:38:46.829Z,23.30
2019-04-05T10:41:16.586Z,21.25
2019-04-05T10:43:46.366Z,21.13
2019-04-05T10:46:16.950Z,20.37
2019-04-05T10:48:46.757Z,24.80
2019-04-05T10:51:16.457Z,20.17
2019-04-05T10:53:48.225Z,21.40
2019-04-05T10:56:18.222Z,20.93
2019-04-05T10:58:48.079Z,23.55
2019-04-05T11:01:17.811Z,23.83
2019-04-05T11:03:47.640Z,21.23
2019-04-05T11:06:17.537Z,23.18
2019-04-05T11:08:48.378Z,23.77
2019-04-05T11:11:18.168Z,26.07
2019-04-05T11:13:48.325Z,21.47
2019-04-05T11:16:18.412Z,22.80
2019-04-05T11:18:48.273Z,24.47
2019-04-05T11:21:19.039Z,22.03
2019-04-05T11:23:48.851Z,22.87
2019-04-05T11:26:18.749Z,23.00
2019-04-05T11:28:49.414Z,23.70
2019-04-05T11:31:20.317Z,20.03
2019-04-05T11:33:51.179Z,19.97
2019-04-05T11:36:21.183Z,21.67
2019-04-05T11:38:51.131Z,18.13
2019-04-05T11:41:21.012Z,18.07
2019-04-05T11:43:52.078Z,19.07
2019-04-05T11:46:22.053Z,20.17
2019-04-05T11:48:54.343Z,19.70
2019-04-05T11:51:25.394Z,18.20
2019-04-05T11:53:56.149Z,23.17
2019-04-05T11:56:26.464Z,20.43
2019-04-05T11:58:57.100Z,19.98
2019-04-05T12:01:35.276Z,16.17
2019-04-05T12:04:05.042Z,15.73
2019-04-05T12:06:35.267Z,15.87
2019-04-05T12:09:07.697Z,14.80
2019-04-05T12:11:37.609Z,17.03
2019-04-05T12:14:07.349Z,16.13
2019-04-05T12:16:37.033Z,16.10
2019-04-05T12:19:06.934Z,15.10
2019-04-05T12:21:36.606Z,15.43
2019-04-05T12:24:06.410Z,16.17
2019-04-05T12:26:36.554Z,15.27
2019-04-05T12:29:07.495Z,15.73
2019-04-05T12:31:37.297Z,16.50
2019-04-05T12:34:07.089Z,16.87
2019-04-05T12:36:36.932Z,15.97
2019-04-05T12:39:08.489Z,15.17
2019-04-05T12:41:40.962Z,14.43
2019-04-05T12:44:14.153Z,15.73
2019-04-05T12:46:43.448Z,15.13
2019-04-05T12:49:15.324Z,16.20
2019-04-05T12:51:46.197Z,16.47
2019-04-05T12:54:16.121Z,16.10
2019-04-05T12:56:45.926Z,14.60
2019-04-05T12:59:15.619Z,16.67
2019-04-05T13:01:46.471Z,16.24
2019-04-05T13:04:16.550Z,16.27
2019-04-05T13:06:46.363Z,13.90
2019-04-05T13:09:16.249Z,14.50
2019-04-05T13:11:46.159Z,16.17
2019-04-05T13:14:16.086Z,16.83
2019-04-05T13:16:49.195Z,16.53
2019-04-05T13:19:17.823Z,17.87
2019-04-05T13:21:47.621Z,16.30
2019-04-05T13:24:17.370Z,16.83
2019-04-05T13:26:47.160Z,16.77
2019-04-05T13:29:17.586Z,16.70
2019-04-05T13:31:49.272Z,15.95
2019-04-05T13:34:19.385Z,17.53
2019-04-05T13:36:49.088Z,18.17
2019-04-05T13:39:18.807Z,17.37
2019-04-05T13:41:48.634Z,19.07
2019-04-05T13:44:18.359Z,18.05
2019-04-05T13:46:48.097Z,18.97
2019-04-05T13:49:17.718Z,22.07
2019-04-05T13:51:47.402Z,18.77
2019-04-05T13:54:17.154Z,20.40
2019-04-05T13:56:46.903Z,22.50
2019-04-05T13:59:16.707Z,18.23
2019-04-05T14:01:50.767Z,19.67
2019-04-05T14:04:20.681Z,22.53
2019-04-05T14:06:53.274Z,22.90
2019-04-05T14:09:21.301Z,26.23
2019-04-05T14:11:51.086Z,22.25
2019-04-05T14:14:21.071Z,22.62
2019-04-05T14:16:50.718Z,20.67
2019-04-05T14:19:20.441Z,19.87
2019-04-05T14:21:52.726Z,21.07
2019-04-05T14:24:23.415Z,24.52
2019-04-05T14:26:53.039Z,23.53
2019-04-05T14:29:22.716Z,23.92
2019-04-05T14:31:52.474Z,21.53
2019-04-05T14:34:23.686Z,21.27
2019-04-05T14:36:54.329Z,24.13
2019-04-05T14:39:24.093Z,26.77
2019-04-05T14:41:53.755Z,24.20
2019-04-05T14:44:23.576Z,22.67
2019-04-05T14:46:53.447Z,26.70
2019-04-05T14:49:23.139Z,23.43
2019-04-05T14:51:56.439Z,25.17
2019-04-05T14:54:25.216Z,26.47
2019-04-05T14:56:57.301Z,24.67
2019-04-05T14:59:26.325Z,27.82
2019-04-05T15:01:55.995Z,26.00
2019-04-05T15:04:25.708Z,28.27
2019-04-05T15:06:55.465Z,28.80
2019-04-05T15:09:25.651Z,30.53
2019-04-05T15:11:56.444Z,28.10
2019-04-05T15:14:26.894Z,31.17
2019-04-05T15:16:56.659Z,26.87
2019-04-05T15:19:26.453Z,24.80
2019-04-05T15:22:05.562Z,31.17
2019-04-05T15:24:27.728Z,29.37
2019-04-05T15:26:57.385Z,34.50
2019-04-05T15:29:27.745Z,28.27
2019-04-05T15:31:57.608Z,27.93
2019-04-05T15:34:29.040Z,26.53
2019-04-05T15:37:01.551Z,30.57
2019-04-05T15:39:32.357Z,30.62
2019-04-05T15:42:02.244Z,25.70
2019-04-05T15:44:32.893Z,29.47
2019-04-05T15:47:02.790Z,27.67
2019-04-05T15:49:35.897Z,30.70
2019-04-05T15:52:17.797Z,28.77
2019-04-05T15:54:37.154Z,32.93
2019-04-05T15:57:06.902Z,28.17
2019-04-05T15:59:36.587Z,31.90
2019-04-05T16:02:06.447Z,27.83
2019-04-05T16:04:36.343Z,33.75
2019-04-05T16:07:06.249Z,36.73
2019-04-05T16:09:36.988Z,32.25
2019-04-05T16:12:07.028Z,36.30
2019-04-05T16:14:36.912Z,36.37
2019-04-05T16:17:07.629Z,32.80
2019-04-05T16:19:37.390Z,30.60
2019-04-05T16:22:07.238Z,35.10
2019-04-05T16:24:37.010Z,34.20
2019-04-05T16:27:07.051Z,32.10
2019-04-05T16:29:36.794Z,30.63
2019-04-05T16:32:06.634Z,38.30
2019-04-05T16:34:36.360Z,35.98
2019-04-05T16:37:06.188Z,42.77
2019-04-05T16:39:35.954Z,36.40
2019-04-05T16:42:05.904Z,39.13
2019-04-05T16:44:36.230Z,37.60
2019-04-05T16:47:06.043Z,35.10
2019-04-05T16:49:35.870Z,37.47
2019-04-05T16:52:05.672Z,33.67
2019-04-05T16:54:35.322Z,37.37
2019-04-05T16:57:06.047Z,35.50
2019-04-05T16:59:37.938Z,37.63
2019-04-05T17:02:08.286Z,43.10
2019-04-05T17:04:40.297Z,40.93
2019-04-05T17:07:11.118Z,38.43
2019-04-05T17:09:41.034Z,40.60
2019-04-05T17:12:10.719Z,39.00
2019-04-05T17:14:40.496Z,33.30
2019-04-05T17:17:10.600Z,40.93
2019-04-05T17:19:42.945Z,42.93
2019-04-05T17:22:13.020Z,39.80
2019-04-05T17:24:42.874Z,41.83
2019-04-05T17:27:12.677Z,36.83
2019-04-05T17:29:42.539Z,37.90
2019-04-05T17:32:12.545Z,38.75
2019-04-05T17:34:42.348Z,38.67
2019-04-05T17:37:12.144Z,39.50
2019-04-05T17:39:43.155Z,38.17
2019-04-05T17:42:13.011Z,38.03
2019-04-05T17:44:42.867Z,39.50
2019-04-05T17:47:12.764Z,39.43
2019-04-05T17:49:42.500Z,34.37
2019-04-05T17:52:12.273Z,33.83
2019-04-05T17:54:42.088Z,37.60
2019-04-05T17:57:11.898Z,42.23
2019-04-05T17:59:41.651Z,43.60
2019-04-05T18:02:11.464Z,41.97
2019-04-05T18:04:41.112Z,44.43
2019-04-05T18:07:11.931Z,44.42
2019-04-05T18:09:41.631Z,40.90
2019-04-05T18:12:11.468Z,45.00
2019-04-05T18:14:41.126Z,41.47
2019-04-05T18:17:15.123Z,42.53
2019-04-05T18:19:45.255Z,42.83
2019-04-05T18:22:15.188Z,45.13
2019-04-05T18:24:44.898Z,39.10
2019-04-05T18:27:14.599Z,44.20
2019-04-05T18:29:44.281Z,40.30
2019-04-05T18:32:14.091Z,47.90
2019-04-05T18:34:43.808Z,38.07
2019-04-05T18:37:14.888Z,38.60
2019-04-05T18:39:44.690Z,43.60
2019-04-05T18:42:14.477Z,41.40
2019-04-05T18:44:45.286Z,40.77
2019-04-05T18:47:18.686Z,39.80
2019-04-05T18:49:48.506Z,41.08
2019-04-05T18:52:18.334Z,41.73
2019-04-05T18:54:48.362Z,46.57
2019-04-05T18:57:18.203Z,42.33
2019-04-05T18:59:48.189Z,50.57
2019-04-05T19:02:17.988Z,41.00
2019-04-05T19:04:49.696Z,44.40
2019-04-05T19:07:22.188Z,44.73
2019-04-05T19:09:51.498Z,41.10
2019-04-05T19:12:21.416Z,45.50
2019-04-05T19:14:51.044Z,48.03
2019-04-05T19:17:24.096Z,47.40
2019-04-05T19:19:52.367Z,47.60
2019-04-05T19:22:22.189Z,48.97
2019-04-05T19:24:52.035Z,44.60
2019-04-05T19:27:21.755Z,49.43
2019-04-05T19:29:52.570Z,45.80
2019-04-05T19:50:02.763Z,49.47
2019-04-05T19:52:32.543Z,55.10
2019-04-05T19:55:02.247Z,48.78
2019-04-05T19:57:32.016Z,54.23
2019-04-05T20:00:01.894Z,50.77
2019-04-05T20:02:31.661Z,50.00
2019-04-05T20:05:01.459Z,56.97
2019-04-05T20:07:31.460Z,54.43
2019-04-05T20:10:01.345Z,49.37
2019-04-05T20:12:31.247Z,55.40
2019-04-05T20:15:01.028Z,50.67
2019-04-05T20:17:31.853Z,53.87
2019-04-05T20:20:01.519Z,58.00
2019-04-05T20:22:31.259Z,48.67
2019-04-05T20:25:00.984Z,56.07
2019-04-05T20:27:30.693Z,51.10
2019-04-05T20:30:00.557Z,51.77
2019-04-05T20:32:30.383Z,58.87
2019-04-05T20:35:01.225Z,54.48
2019-04-05T20:37:31.008Z,53.87
2019-04-05T20:40:00.882Z,62.23
2019-04-05T20:42:31.065Z,59.80
2019-04-05T20:45:00.932Z,53.30
2019-04-05T20:47:30.857Z,54.93
2019-04-05T20:50:00.520Z,57.47
2019-04-05T20:52:30.290Z,58.40
2019-04-05T20:55:00.105Z,57.67
2019-04-05T20:57:29.864Z,64.93
2019-04-05T20:59:59.674Z,61.63
2019-04-05T21:02:29.722Z,68.40
2019-04-05T21:04:59.685Z,65.90
2019-04-05T21:07:29.536Z,67.30
2019-04-05T21:09:59.404Z,63.13
2019-04-05T21:12:29.182Z,70.97
2019-04-05T21:14:58.888Z,67.07
2019-04-05T21:17:28.703Z,60.30
2019-04-05T21:19:58.413Z,69.65
2019-04-05T21:22:28.126Z,61.00
2019-04-05T21:24:57.947Z,63.13
2019-04-05T21:27:27.654Z,68.33
2019-04-05T21:29:57.438Z,58.53
2019-04-05T21:32:27.400Z,54.73
2019-04-05T21:34:57.504Z,64.10
2019-04-05T21:37:27.346Z,70.05
2019-04-05T21:39:58.290Z,58.87
2019-04-05T21:42:27.971Z,61.13
2019-04-05T21:44:57.768Z,58.23
2019-04-05T21:47:27.585Z,63.48
2019-04-05T21:49:57.323Z,63.97
2019-04-05T21:52:27.134Z,64.63
2019-04-05T21:54:57.206Z,71.80
2019-04-05T21:57:27.074Z,64.00
2019-04-05T21:59:56.719Z,70.40
2019-04-05T22:02:26.583Z,62.80
2019-04-05T22:04:57.254Z,59.93
2019-04-05T22:07:27.116Z,70.97
2019-04-05T22:09:56.920Z,70.50
2019-04-05T22:12:27.470Z,69.60
2019-04-05T22:14:57.215Z,71.23
2019-04-05T22:17:26.934Z,69.75
2019-04-05T22:19:57.193Z,71.47
2019-04-05T22:22:28.446Z,70.28
2019-04-05T22:24:59.595Z,64.83
2019-04-05T22:27:29.596Z,67.27
2019-04-05T22:30:00.038Z,72.50
2019-04-05T22:32:31.081Z,76.20
2019-04-05T22:35:00.912Z,72.55
2019-04-05T22:37:31.451Z,71.17
2019-04-05T22:40:01.522Z,74.87
2019-04-05T22:42:34.638Z,70.10
2019-04-05T22:45:05.099Z,71.43
2019-04-05T22:47:35.422Z,71.77
2019-04-05T22:50:05.500Z,73.70
2019-04-05T22:52:35.279Z,70.87
2019-04-05T22:55:11.015Z,74.60
2019-04-05T22:57:37.082Z,69.55
2019-04-05T23:00:07.158Z,77.27
2019-04-05T23:02:38.545Z,67.80
2019-04-05T23:05:08.449Z,70.77
2019-04-05T23:07:38.436Z,70.67
2019-04-05T23:10:08.420Z,79.03
2019-04-05T23:12:38.270Z,78.63
2019-04-05T23:15:08.264Z,71.97
2019-04-05T23:17:39.332Z,76.17
2019-04-05T23:20:09.512Z,75.25
2019-04-05T23:22:39.202Z,73.20
2019-04-05T23:25:09.234Z,82.33
2019-04-05T23:27:40.071Z,71.65
2019-04-05T23:30:09.980Z,73.57
2019-04-05T23:32:39.678Z,75.50
2019-04-05T23:35:09.836Z,77.08
2019-04-05T23:37:39.552Z,81.23
2019-04-05T23:40:09.342Z,76.03
2019-04-05T23:42:39.056Z,85.67
2019-04-05T23:45:08.966Z,85.73
2019-04-05T23:47:39.045Z,81.37
2019-04-05T23:50:08.789Z,82.83
2019-04-05T23:52:38.840Z,83.33
2019-04-05T23:55:09.140Z,84.23
2019-04-05T23:57:38.853Z,85.40
